This is the latest recevied weather packets stored in our database for station/object HARMALA. If no packets are shown the sender has not sent any weather packets the latest 10 day(s).
| Time | Temp. | Humidity | Pressure | Rain* | Wind** | Luminosity | Snow |
|---|---|---|---|---|---|---|---|
| 1777890433 | 8.89° C | 36% | 1002.4 hPa | 0 mm | - | - | - |
| 1777889233 | 8.33° C | 37% | 1002.9 hPa | 0 mm | - | - | - |
| 1777888033 | 8.33° C | 39% | 1003.3 hPa | 0 mm | - | - | - |
| 1777886834 | 8.33° C | 38% | 1003.5 hPa | 0 mm | - | - | - |
| 1777885633 | 7.78° C | 44% | 1003.5 hPa | 0 mm | - | - | - |
| 1777884433 | 7.22° C | 45% | 1003.7 hPa | 0 mm | - | - | - |
| 1777883234 | 7.78° C | 45% | 1003.7 hPa | 0 mm | - | - | - |
| 1777882033 | 7.78° C | 45% | 1003.7 hPa | 0 mm | - | - | - |
| 1777880833 | 7.78° C | 46% | 1003.8 hPa | 0 mm | - | - | - |
| 1777879633 | 7.78° C | 45% | 1004 hPa | 0 mm | - | - | - |
| 1777878433 | 7.78° C | 43% | 1004.1 hPa | 0 mm | - | - | - |
| 1777877233 | 7.78° C | 44% | 1004.2 hPa | 0 mm | - | - | - |
| 1777876033 | 7.22° C | 50% | 1004.4 hPa | 0 mm | - | - | - |
| 1777874832 | 6.67° C | 57% | 1004.6 hPa | 0 mm | - | - | - |
| 1777873633 | 6.11° C | 58% | 1004.8 hPa | 0 mm | - | - | - |
| 1777872433 | 5.56° C | 59% | 1005 hPa | 0 mm | - | - | - |
| 1777871232 | 5° C | 61% | 1005.2 hPa | 0 mm | - | - | - |
| 1777870032 | 5° C | 60% | 1005.4 hPa | 0 mm | - | - | - |
| 1777868832 | 3.89° C | 65% | 1005.7 hPa | 0 mm | - | - | - |
| 1777867632 | 3.33° C | 67% | 1005.9 hPa | 0 mm | - | - | - |
| 1777866432 | 2.78° C | 70% | 1006.1 hPa | 0 mm | - | - | - |
| 1777865233 | 1.67° C | 75% | 1006.2 hPa | 0 mm | - | - | - |
| 1777864033 | 1.67° C | 77% | 1006.4 hPa | 0 mm | - | - | - |
| 1777862832 | 0.56° C | 79% | 1006.6 hPa | 0 mm | - | - | - |
| 1777861632 | 0° C | 80% | 1006.8 hPa | 0 mm | - | - | - |
* Rain latest hour (hover to see other rain measurements)
** Current wind speed in m/s (hover to see current wind gust speed)